Tiempo atmosférico en la estación meteorológica de Vilassar De Dalt, Barcelona (60 m.)



Fecha
DESCASC
Temp. máxima en grados centígrados (hora)
DESCASC
Temp. mínima en grados centígrados (hora)
DESCASC
Temp. media en grados centígrados
DESCASC
Racha de viento máxima en m/sg (hora)
DESCASC
Velocidad máxima media en intervalos de 10 minutos(hora)
DESCASC
Precipitaciones diarias en mm
DESCASC
Precipitaciones de 00:00 a 06:00 en mm
DESCASC
Precipitaciones de 06:00 a 12:00 en mm
DESCASC
Precipitaciones de 12:00 a 18:00 en mm
DESCASC
Precipitaciones de 18:00 a 24:00 en mm
DESCASC
26-03-2020 12.4 (10:40) 5.2 (04:00) 8.8 12.78 (15:50) 7.22 (14:40) 0 0 0 0 0
25-03-2020 13.5 (11:20) 8.2 (22:10) 10.8 8.33 (01:00) 5 (11:50) 0 0 0 0 0
24-03-2020 14.6 (13:00) 9.3 (22:50) 12 12.22 (14:10) 7.5 (13:50) 0 0 0 0 0
23-03-2020 16.7 (13:00) 11.8 (03:30) 14.3 10.83 (17:00) 6.11 (15:40) 23.6 6.2 17 0 0.4
22-03-2020 16.3 (10:40) 10.8 (05:00) 13.5 9.17 (14:50) 5.56 (14:30) 0.2 0 0 0 0.2
21-03-2020 16.2 (10:20) 9.3 (00:00) 12.8 7.5 (12:00) 5 (13:00) 0 0 0 0 0
20-03-2020 16.2 (12:40) 8 (00:00) 12.1 6.94 (14:10) 4.17 (13:00) 0 0 0 0 0
19-03-2020 16.8 (10:00) 8.5 (00:00) 12.6 5 (15:10) 2.22 (11:30) 0 0 0 0 0
18-03-2020 17.7 (16:50) 9.6 (00:00) 13.7 4.44 (11:50) 1.94 (11:10) 0 0 0 0 0
17-03-2020 17.3 (15:00) 11.2 (00:00) 14.2 13.33 (02:20) 5.83 (02:20) 0.2 0.2 0 0 0
16-03-2020 14.3 (09:30) 12.4 (00:00) 13.3 14.17 (19:00) 6.67 (13:40) 9.6 0 0.4 8.2 1
15-03-2020 18.1 (12:10) 9.1 (00:00) 13.6 6.67 (15:40) 3.89 (16:30) 0 0 0 0 0
14-03-2020 16.4 (11:00) 10.3 (00:00) 13.3 6.39 (14:10) 4.17 (13:40) 0 0 0 0 0
13-03-2020 18.9 (11:30) 10.5 (04:10) 14.7 6.94 (12:50) 4.44 (13:00) 0 0 0 0 0
12-03-2020 20.3 (13:40) 10 (00:00) 15.1 5 (16:20) 2.78 (16:20) 0 0 0 0 0
11-03-2020 18.1 (12:20) 9.1 (00:00) 13.6 4.44 (11:10) 2.78 (11:00) 0 0 0 0 0
10-03-2020 18 (11:00) 10 (00:00) 14 8.61 (16:40) 5 (16:40) 0 0 0 0 0
09-03-2020 19.4 (11:40) 9.7 (00:00) 14.5 9.17 (16:10) 5.28 (16:00) 0 0 0 0 0
08-03-2020 -- (--) -- (--) -- -- (--) -- (--) -- 0 0 -- 0
07-03-2020 17.4 (11:30) 5.4 (00:00) 11.4 9.44 (00:10) 5.28 (00:20) 0 0 0 0 0
06-03-2020 17.6 (14:20) 8.5 (00:00) 13.1 13.89 (11:30) 6.39 (11:30) 0 0 0 0 0
05-03-2020 22.7 (15:50) 10.1 (00:00) 16.4 14.72 (16:20) 8.61 (16:20) 0 0 0 0 0
04-03-2020 16.5 (11:10) 7.5 (00:00) 12 10.28 (11:40) 5.28 (11:40) 0 0 0 0 0
03-03-2020 16 (15:30) 6.9 (00:00) 11.5 13.33 (12:40) 8.33 (12:40) 0 0 0 0 0
02-03-2020 18.8 (15:00) 8.8 (00:00) 13.8 18.89 (11:30) 10 (11:40) 2 0.8 1.2 0 0
01-03-2020 20.5 (15:40) 11.4 (00:00) 15.9 14.44 (11:30) 8.33 (13:30) 0 0 0 0 0
29-02-2020 18.2 (12:00) 12.4 (00:00) 15.3 8.89 (12:50) 5.83 (13:50) 0 0 0 0 0
28-02-2020 -- (--) -- (--) -- -- (--) -- (--) -- 0 0 0 --

Gráficas

Temp. máximas Temp. mínimas Temp. medias Precipitaciones Rachas de viento máximas Velocidades máximas media en intervalos de 10 minutos

Datos horarios

Fecha y hora oficial Temperatura (ºC) Velocidad del viento (km/h) Dirección del viento Racha (km/h) Dirección de racha Precipitación (mm) Presión (hPa) Tendencia (hPa) Humedad (%)
2020-03-28 23:00:00 12.5 2 Norte 6 Norte 0 -- -- 68
2020-03-28 22:00:00 11.1 4 Noroeste 9 Sudoeste 0 -- -- 73
2020-03-28 21:00:00 11.8 0 Calma 5 Oeste 0 -- -- 71
2020-03-28 20:00:00 12.9 3 Sudoeste 14 Sudoeste 0 -- -- 69
2020-03-28 19:00:00 13.8 9 Sudoeste 18 Sudoeste 0 -- -- 66
2020-03-28 18:00:00 16.4 10 Sudoeste 18 Sudoeste 0 -- -- 59
2020-03-28 17:00:00 16.3 9 Sudoeste 17 Sudoeste 0 -- -- 57
2020-03-28 16:00:00 15.5 9 Sudoeste 17 Sudoeste 0 -- -- 56
2020-03-28 15:00:00 17.7 5 Sur 16 Sudoeste 0 -- -- 55
2020-03-28 14:00:00 17.4 8 Sur 15 Sur 0 -- -- 51
2020-03-28 13:00:00 17.6 5 Sudeste 15 Sudeste 0 -- -- 52
2020-03-28 12:00:00 17.1 5 Sudeste 13 Sudeste 0 -- -- 49
2020-03-28 11:00:00 16 8 Sudeste 21 Este 0 -- -- 51
2020-03-28 10:00:00 16.2 9 Este 17 Sudeste 0 -- -- 50
2020-03-28 09:00:00 14.2 8 Norte 16 Nordeste 0 -- -- 51
2020-03-28 08:00:00 14.4 8 Norte 15 Nordeste 0 -- -- 50
2020-03-28 07:00:00 10.6 6 Norte 14 Norte 0 -- -- 63
2020-03-28 06:00:00 11.5 6 Norte 11 Norte 0 -- -- 62
2020-03-28 05:00:00 11.7 6 Norte 10 Noroeste 0 -- -- 59
2020-03-28 04:00:00 11.9 6 Norte 12 Norte 0 -- -- 57
2020-03-28 03:00:00 11.6 5 Norte 13 Norte 0 -- -- 58
2020-03-28 02:00:00 11.4 6 Norte 14 Norte 0 -- -- 59
2020-03-28 01:00:00 11.3 6 Norte 10 Noroeste 0 -- -- 61
2020-03-28 00:00:00 10.9 5 Norte 9 Norte 0 -- -- 64
2020-03-27 23:00:00 10.2 5 Norte 10 Nordeste 0 -- -- 68
2020-03-27 22:00:00 10.3 4 Este 20 Noroeste 0 -- -- 68
2020-03-27 21:00:00 9.8 0 Calma 6 Sudeste 0 -- -- 75
2020-03-27 20:00:00 9.7 3 Sudeste 10 Sur 0 -- -- 78
2020-03-27 19:00:00 9.7 5 Oeste 11 Noroeste 0.4 -- -- 81
2020-03-27 18:00:00 11 3 Este 15 Este 0 -- -- 69
2020-03-27 17:00:00 12.3 8 Este 14 Sudeste 0 -- -- 55
2020-03-27 16:00:00 13.6 6 Sudeste 13 Sudeste 0 -- -- 47
2020-03-27 15:00:00 15.1 5 Sur 15 Sur 0 -- -- 39
2020-03-27 14:00:00 16.1 6 Sur 16 Sur 0 -- -- 39
2020-03-27 13:00:00 15.8 4 Noroeste 17 Noroeste 0 -- -- 35
2020-03-27 12:00:00 14.1 9 Noroeste 19 Norte 0 -- -- 36
2020-03-27 11:00:00 13.9 8 Noroeste 24 Norte 0 -- -- 41
2020-03-27 10:00:00 12.7 11 Noroeste 31 Noroeste 0 -- -- 46
2020-03-27 09:00:00 10.9 12 Noroeste 29 Noroeste 0 -- -- 49
2020-03-27 08:00:00 10.3 10 Noroeste 28 Noroeste 0 -- -- 50
2020-03-27 07:00:00 8.4 12 Noroeste 26 Norte 0 -- -- 54
2020-03-27 06:00:00 8.2 10 Noroeste 24 Noroeste 0 -- -- 56
2020-03-27 05:00:00 8 10 Noroeste 23 Norte 0 -- -- 56
2020-03-27 04:00:00 5.8 2 Sudeste 15 Noroeste 0 -- -- 67
2020-03-27 03:00:00 6.5 5 Noroeste 14 Noroeste 0 -- -- 64
2020-03-27 02:00:00 7.1 6 Norte 11 Noroeste 0 -- -- 63
2020-03-27 01:00:00 6.9 7 Noroeste 12 Norte 0 -- -- 67
2020-03-27 00:00:00 7 7 Norte 14 Norte 0 -- -- 69
2020-03-26 23:00:00 7.3 7 Norte 14 Norte 0 -- -- 68
2020-03-26 22:00:00 7.5 6 Norte 18 Norte 0 -- -- 66
2020-03-26 21:00:00 7.8 8 Norte 28 Norte 0 -- -- 65
2020-03-26 20:00:00 8.5 12 Nordeste 30 Nordeste 0 -- -- 63
2020-03-26 19:00:00 8.6 14 Norte 33 Nordeste 0 -- -- 66
2020-03-26 18:00:00 9.4 16 Nordeste 35 Norte 0 -- -- 66
2020-03-26 17:00:00 11 16 Nordeste 37 Nordeste 0 -- -- 65
2020-03-26 16:00:00 9.7 23 Nordeste 46 Nordeste 0 -- -- 67
2020-03-26 15:00:00 11.3 21 Nordeste 45 Este 0 -- -- 63
2020-03-26 14:00:00 11.2 18 Nordeste 41 Nordeste 0 -- -- 63
2020-03-26 13:00:00 10.2 15 Nordeste 36 Nordeste 0 -- -- 64
2020-03-26 12:00:00 11.1 19 Este 37 Este 0 -- -- 66
2020-03-26 11:00:00 12.2 18 Nordeste 35 Este 0 -- -- 63
2020-03-26 10:00:00 11.5 11 Nordeste 20 Este 0 -- -- 60
2020-03-26 09:00:00 11.8 8 Nordeste 16 Nordeste 0 -- -- 59
2020-03-26 08:00:00 11.3 4 Norte 10 Norte 0 -- -- 59
2020-03-26 07:00:00 7.1 6 Norte 14 Norte 0 -- -- 68
2020-03-26 06:00:00 7 5 Norte 15 Noroeste 0 -- -- 71
2020-03-26 05:00:00 6.2 5 Norte 9 Nordeste 0 -- -- 75
2020-03-26 04:00:00 5.2 2 Este 5 Nordeste 0 -- -- 76
2020-03-26 03:00:00 6.9 3 Noroeste 17 Sudoeste 0 -- -- 69
2020-03-26 02:00:00 8.3 9 Oeste 23 Oeste 0 -- -- 62
2020-03-26 01:00:00 8.5 10 Oeste 22 Oeste 0 -- -- 61
2020-03-26 00:00:00 8.4 8 Oeste 19 Oeste 0 -- -- 62
2020-03-25 23:00:00 8.6 6 Oeste 14 Oeste 0 -- -- 58
2020-03-25 22:00:00 8.3 5 Noroeste 12 Noroeste 0 -- -- 67
2020-03-25 21:00:00 9.1 6 Noroeste 11 Oeste 0 -- -- 66
2020-03-25 20:00:00 9.5 4 Oeste 9 Oeste 0 -- -- 65
2020-03-25 19:00:00 9.8 4 Oeste 15 Oeste 0 -- -- 64
2020-03-25 18:00:00 9.3 10 Oeste 23 Oeste 0 -- -- 68
2020-03-25 17:00:00 10.6 5 Sur 12 Sur 0 -- -- 57
2020-03-25 16:00:00 10.8 4 Sudeste 14 Sudeste 0 -- -- 58
2020-03-25 15:00:00 11.1 10 Sudeste 18 Este 0 -- -- 61
2020-03-25 14:00:00 11.1 12 Sudeste 24 Sudeste 0 -- -- 61
2020-03-25 13:00:00 13.1 10 Sudeste 26 Sudeste 0 -- -- 46
2020-03-25 12:00:00 12.6 18 Este 29 Este 0 -- -- 47
2020-03-25 11:00:00 13.1 14 Este 23 Este 0 -- -- 42
2020-03-25 10:00:00 12.3 11 Este 24 Nordeste 0 -- -- 44
2020-03-25 09:00:00 11 7 Norte 17 Norte 0 -- -- 49
2020-03-25 08:00:00 9.5 8 Norte 20 Nordeste 0 -- -- 52
2020-03-25 07:00:00 9.4 9 Nordeste 25 Nordeste 0 -- -- 50
2020-03-25 06:00:00 8.9 10 Norte 23 Nordeste 0 -- -- 53
2020-03-25 05:00:00 9 9 Norte 27 Nordeste 0 -- -- 57
2020-03-25 04:00:00 9.2 13 Nordeste 25 Nordeste 0 -- -- 57
2020-03-25 03:00:00 9.5 11 Nordeste 25 Nordeste 0 -- -- 58
2020-03-25 02:00:00 9.4 8 Nordeste 26 Nordeste 0 -- -- 59
2020-03-25 01:00:00 9.6 12 Nordeste 30 Norte 0 -- -- 59
2020-03-25 00:00:00 9.5 11 Nordeste 26 Nordeste 0 -- -- 61
2020-03-24 23:00:00 9.3 8 Nordeste 24 Nordeste 0 -- -- 64
2020-03-24 22:00:00 9.4 9 Nordeste 31 Nordeste 0 -- -- 64
2020-03-24 21:00:00 10 13 Nordeste 31 Nordeste 0 -- -- 63
2020-03-24 20:00:00 10.6 10 Nordeste 33 Este 0 -- -- 65
2020-03-24 19:00:00 11.1 16 Nordeste 39 Nordeste 0 -- -- 65
2020-03-24 18:00:00 11.5 19 Este 44 Este 0 -- -- 67
2020-03-24 17:00:00 11.9 23 Este 44 Este 0 -- -- 68
2020-03-24 16:00:00 11.8 22 Este 43 Este 0 -- -- 76
2020-03-24 15:00:00 14.3 24 Este 44 Este 0 -- -- 64
2020-03-24 14:00:00 14.2 27 Este 42 Este 0 -- -- 64
2020-03-24 13:00:00 14.6 22 Este 40 Este 0 -- -- 61
2020-03-24 12:00:00 13.5 23 Este 39 Este 0 -- -- 63
2020-03-24 11:00:00 13.9 22 Este 39 Este 0 -- -- 63
2020-03-24 10:00:00 13.9 19 Este 39 Este 0 -- -- 59
2020-03-24 09:00:00 13.6 12 Nordeste 28 Este 0 -- -- 63
2020-03-24 08:00:00 12 12 Nordeste 28 Nordeste 0 -- -- 71
2020-03-24 07:00:00 10.8 8 Nordeste 24 Este 0 -- -- 76
2020-03-24 06:00:00 10.6 9 Nordeste 25 Norte 0 -- -- 76
2020-03-24 05:00:00 10.9 10 Nordeste 28 Nordeste 0 -- -- 80
2020-03-24 04:00:00 11.4 11 Nordeste 26 Nordeste 0 -- -- 80
2020-03-24 03:00:00 11.9 13 Nordeste 31 Nordeste 0 -- -- 76
2020-03-24 02:00:00 11.7 12 Nordeste 28 Nordeste 0 -- -- 75
2020-03-24 01:00:00 11.8 12 Nordeste 26 Nordeste 0 -- -- 77
2020-03-24 00:00:00 12.1 9 Nordeste 24 Nordeste 0 -- -- 79
2020-03-23 23:00:00 12.2 12 Nordeste 24 Nordeste 0 -- -- 81
2020-03-23 22:00:00 12.2 12 Nordeste 27 Nordeste 0 -- -- 84
2020-03-23 21:00:00 12.3 14 Nordeste 30 Nordeste 0.4 -- -- 86
2020-03-23 20:00:00 12.9 14 Nordeste 33 Este 0 -- -- 81
2020-03-23 19:00:00 13.8 19 Nordeste 36 Este 0 -- -- 77
2020-03-23 18:00:00 15.3 12 Nordeste 30 Nordeste 0 -- -- 72
2020-03-23 17:00:00 15.8 21 Este 39 Este 0 -- -- 70
2020-03-23 16:00:00 15.8 19 Este 37 Nordeste 0 -- -- 74
2020-03-23 15:00:00 16.5 21 Este 38 Este 0 -- -- 71
2020-03-23 14:00:00 16.2 18 Este 31 Este 0 -- -- 77
2020-03-23 13:00:00 16.7 14 Este 27 Este 0 -- -- 73
2020-03-23 12:00:00 15.5 13 Nordeste 23 Este 0.2 -- -- 80
2020-03-23 11:00:00 12.7 8 Nordeste 22 Nordeste 1.4 -- -- 91
2020-03-23 10:00:00 12.3 8 Nordeste 19 Nordeste 3.2 -- -- 93
2020-03-23 09:00:00 12.4 7 Nordeste 16 Nordeste 2.8 -- -- 94
2020-03-23 08:00:00 12.1 8 Nordeste 19 Nordeste 5.6 -- -- 95
2020-03-23 07:00:00 12 9 Nordeste 22 Nordeste 3.8 -- -- 94
2020-03-23 06:00:00 12 8 Nordeste 17 Nordeste 2.8 -- -- 92
2020-03-23 05:00:00 12.1 5 Nordeste 14 Nordeste 0.8 -- -- 91
2020-03-23 04:00:00 12.1 7 Nordeste 17 Nordeste 1.6 -- -- 92
2020-03-23 03:00:00 12.2 8 Nordeste 16 Nordeste 0.4 -- -- 91
2020-03-23 02:00:00 12.3 5 Nordeste 14 Nordeste 0.6 -- -- 90
2020-03-23 01:00:00 12.8 5 Nordeste 11 Nordeste 0 -- -- 87
2020-03-23 00:00:00 12.8 5 Nordeste 17 Nordeste 0.2 -- -- 90
2020-03-22 23:00:00 13.6 6 Este 15 Este 0 -- -- 83
2020-03-22 22:00:00 13.5 6 Este 17 Nordeste 0 -- -- 84
2020-03-22 21:00:00 13.8 8 Nordeste 23 Nordeste 0 -- -- 82
2020-03-22 20:00:00 13.6 8 Nordeste 22 Este 0 -- -- 87
2020-03-22 19:00:00 13.6 11 Este 29 Nordeste 0 -- -- 87
2020-03-22 18:00:00 13.9 18 Este 30 Este 0 -- -- 86
2020-03-22 17:00:00 14.4 14 Este 30 Este 0 -- -- 84
2020-03-22 16:00:00 15.5 18 Este 32 Este 0 -- -- 80
2020-03-22 15:00:00 16.1 17 Este 33 Este 0 -- -- 76
2020-03-22 14:00:00 15.9 17 Este 32 Este 0 -- -- 78
2020-03-22 13:00:00 15.8 16 Este 31 Este 0 -- -- 78
2020-03-22 12:00:00 15.9 17 Este 28 Este 0 -- -- 78
2020-03-22 11:00:00 16.2 16 Este 30 Este 0 -- -- 74
2020-03-22 10:00:00 15.8 16 Este 26 Este 0 -- -- 76
2020-03-22 09:00:00 15.5 9 Nordeste 18 Nordeste 0 -- -- 77
2020-03-22 08:00:00 13.7 5 Nordeste 12 Nordeste 0 -- -- 86
2020-03-22 07:00:00 11 5 Norte 9 Norte 0 -- -- 93
2020-03-22 06:00:00 11.1 3 Norte 8 Norte 0 -- -- 92
2020-03-22 05:00:00 10.8 3 Norte 8 Norte 0 -- -- 91
2020-03-22 04:00:00 11.3 4 Norte 9 Norte 0 -- -- 89
2020-03-22 03:00:00 11.5 5 Norte 9 Noroeste 0 -- -- 90
2020-03-22 02:00:00 11.9 3 Norte 5 Nordeste 0 -- -- 91
2020-03-22 01:00:00 12.9 3 Nordeste 10 Nordeste 0 -- -- 89
2020-03-22 00:00:00 13.1 4 Nordeste 10 Nordeste 0 -- -- 89
2020-03-21 23:00:00 12.8 4 Norte 8 Nordeste 0 -- -- 89
2020-03-21 22:00:00 12.7 5 Nordeste 9 Nordeste 0 -- -- 89
2020-03-21 21:00:00 13.5 5 Nordeste 15 Este 0 -- -- 87
2020-03-21 20:00:00 13.4 8 Este 16 Este 0 -- -- 90
2020-03-21 19:00:00 13.4 10 Este 18 Este 0 -- -- 88
2020-03-21 18:00:00 13.8 13 Este 22 Este 0 -- -- 86
2020-03-21 17:00:00 14.1 14 Este 23 Este 0 -- -- 83
2020-03-21 16:00:00 15.3 12 Este 25 Este 0 -- -- 75
2020-03-21 15:00:00 15.5 14 Este 25 Este 0 -- -- 72
2020-03-21 14:00:00 16.1 13 Sudeste 26 Este 0 -- -- 69
2020-03-21 13:00:00 16 18 Este 26 Este 0 -- -- 66
2020-03-21 12:00:00 15.6 16 Este 27 Este 0 -- -- 67
2020-03-21 11:00:00 15.9 12 Este 21 Este 0 -- -- 63
2020-03-21 10:00:00 15.5 10 Este 17 Este 0 -- -- 62
2020-03-21 09:00:00 14.8 5 Nordeste 13 Este 0 -- -- 64
2020-03-21 08:00:00 12.4 6 Norte 12 Norte 0 -- -- 69
2020-03-21 07:00:00 10 6 Norte 14 Norte 0 -- -- 78
2020-03-21 06:00:00 10.3 9 Norte 15 Norte 0 -- -- 78
2020-03-21 05:00:00 10.4 8 Norte 14 Noroeste 0 -- -- 71
2020-03-21 04:00:00 11 6 Nordeste 17 Este 0 -- -- 79
2020-03-21 03:00:00 9.5 4 Norte 8 Noroeste 0 -- -- 68
2020-03-21 02:00:00 9.5 5 Norte 9 Norte 0 -- -- 63
2020-03-21 01:00:00 10.4 5 Norte 10 Norte 0 -- -- 62
2020-03-21 00:00:00 10.2 5 Norte 11 Norte 0 -- -- 65
2020-03-20 23:00:00 10.9 6 Norte 12 Norte 0 -- -- 65
2020-03-20 22:00:00 11.1 5 Norte 14 Norte 0 -- -- 64
2020-03-20 21:00:00 11.2 5 Norte 9 Norte 0 -- -- 86
2020-03-20 20:00:00 11.2 3 Norte 8 Nordeste 0 -- -- 84
2020-03-20 19:00:00 12.6 4 Nordeste 15 Este 0 -- -- 83
2020-03-20 18:00:00 13.9 8 Este 17 Este 0 -- -- 80
2020-03-20 17:00:00 13.9 9 Este 21 Este 0 -- -- 81
2020-03-20 16:00:00 14.6 11 Este 21 Este 0 -- -- 78
2020-03-20 15:00:00 14.7 15 Este 25 Este 0 -- -- 80
2020-03-20 14:00:00 15 13 Este 23 Sudeste 0 -- -- 77
2020-03-20 13:00:00 15.2 15 Este 24 Este 0 -- -- 69
2020-03-20 12:00:00 15.7 12 Este 22 Este 0 -- -- 70
2020-03-20 11:00:00 15.6 12 Este 20 Este 0 -- -- 69
2020-03-20 10:00:00 15.2 8 Este 15 Este 0 -- -- 70
2020-03-20 09:00:00 14.1 4 Este 11 Este 0 -- -- 75
2020-03-20 08:00:00 13.3 2 Nordeste 8 Norte 0 -- -- 77
2020-03-20 07:00:00 8.9 5 Norte 8 Norte 0 -- -- 91
2020-03-20 06:00:00 8.3 4 Norte 6 Norte 0 -- -- 91
2020-03-20 05:00:00 8.3 2 Norte 8 Norte 0 -- -- 89
2020-03-20 04:00:00 9.6 6 Norte 11 Norte 0 -- -- 91
2020-03-20 03:00:00 9.2 3 Norte 7 Noroeste 0 -- -- 93
2020-03-20 02:00:00 9.5 3 Norte 6 Norte 0 -- -- 93
2020-03-20 01:00:00 9.8 4 Norte 6 Norte 0 -- -- 93
2020-03-20 00:00:00 9.2 4 Norte 6 Nordeste 0 -- -- 92
2020-03-19 23:00:00 9.7 3 Norte 6 Norte 0 -- -- 90
2020-03-19 22:00:00 9.8 0 Calma 6 Norte 0 -- -- 88
2020-03-19 21:00:00 10.7 4 Norte 8 Norte 0 -- -- 86
2020-03-19 20:00:00 11.2 3 Norte 10 Este 0 -- -- 86
2020-03-19 19:00:00 12.4 6 Este 12 Este 0 -- -- 82
2020-03-19 18:00:00 13.1 5 Este 15 Este 0 -- -- 78
2020-03-19 17:00:00 13.5 8 Este 17 Este 0 -- -- 79
2020-03-19 16:00:00 14.3 7 Sudeste 18 Este 0 -- -- 76
2020-03-19 15:00:00 14.8 6 Sudeste 15 Este 0 -- -- 76
2020-03-19 14:00:00 16 5 Sudeste 15 Sudeste 0 -- -- 72
2020-03-19 13:00:00 14.4 7 Sudeste 16 Sudeste 0 -- -- 76
2020-03-19 12:00:00 15.9 5 Sudeste 15 Sudeste 0 -- -- 72
2020-03-19 11:00:00 16.1 5 Sudeste 13 Este 0 -- -- 72
2020-03-19 10:00:00 16.8 3 Sudeste 8 Sudeste 0 -- -- 73
2020-03-19 09:00:00 14.7 3 Este 7 Este 0 -- -- 78
2020-03-19 08:00:00 12 3 Norte 8 Noroeste 0 -- -- 87
2020-03-19 07:00:00 9.5 4 Noroeste 6 Noroeste 0 -- -- 90
2020-03-19 06:00:00 9.8 3 Norte 6 Norte 0 -- -- 90
2020-03-19 05:00:00 9.2 3 Norte 5 Norte 0 -- -- 91
2020-03-19 04:00:00 8.5 2 Norte 7 Noroeste 0 -- -- 89
2020-03-19 03:00:00 9.4 5 Noroeste 8 Noroeste 0 -- -- 87
2020-03-19 02:00:00 10.1 5 Noroeste 6 Noroeste 0 -- -- 87
2020-03-19 01:00:00 9.9 4 Noroeste 9 Noroeste 0 -- -- 81
2020-03-19 00:00:00 9.8 4 Norte 7 Norte 0 -- -- 82
2020-03-18 23:00:00 9.9 2 Noroeste 5 Noroeste 0 -- -- 85
2020-03-18 22:00:00 10.2 3 Noroeste 5 Noroeste 0 -- -- 82
2020-03-18 21:00:00 10.3 0 Calma 4 Oeste 0 -- -- 84
2020-03-18 20:00:00 11.4 0 Calma 3 Noroeste 0 -- -- 88
2020-03-18 19:00:00 12.8 0 Calma 5 Sudeste 0 -- -- 86
2020-03-18 18:00:00 14.6 2 Sudeste 9 Sudeste 0 -- -- 79
2020-03-18 17:00:00 17.4 3 Sudeste 13 Este 0 -- -- 65
2020-03-18 16:00:00 16.4 4 Este 9 Este 0 -- -- 61
2020-03-18 15:00:00 15.5 5 Sudeste 11 Sudeste 0 -- -- 74
2020-03-18 14:00:00 15.4 6 Sudeste 13 Este 0 -- -- 70
2020-03-18 13:00:00 15 4 Sudeste 12 Sudeste 0 -- -- 73
2020-03-18 12:00:00 15.7 6 Sudeste 16 Nordeste 0 -- -- 66
2020-03-18 11:00:00 15.6 5 Nordeste 10 Nordeste 0 -- -- 65
2020-03-18 10:00:00 15 4 Este 8 Este 0 -- -- 69
2020-03-18 09:00:00 13.3 0 Calma 4 Noroeste 0 -- -- 76
2020-03-18 08:00:00 11 0 Calma 6 Noroeste 0 -- -- 75
2020-03-18 07:00:00 10.2 0 Calma 5 Oeste 0 -- -- 79
2020-03-18 06:00:00 9.9 0 Calma 4 Norte 0 -- -- 80
2020-03-18 05:00:00 10.1 3 Norte 5 Norte 0 -- -- 84
2020-03-18 04:00:00 10.2 0 Calma 6 Noroeste 0 -- -- 90
2020-03-18 03:00:00 10.9 4 Noroeste 6 Noroeste 0 -- -- 91
2020-03-18 02:00:00 10.5 0 Calma 4 Noroeste 0 -- -- 89
2020-03-18 01:00:00 11.2 3 Noroeste 4 Noroeste 0 -- -- 86
2020-03-18 00:00:00 11.3 2 Norte 5 Noroeste 0 -- -- 83
2020-03-17 23:00:00 11.6 2 Noroeste 6 Noroeste 0 -- -- 81
2020-03-17 22:00:00 12.3 2 Nordeste 5 Nordeste 0 -- -- 80
2020-03-17 21:00:00 13.1 0 Calma 7 Norte 0 -- -- 77
2020-03-17 20:00:00 13.1 3 Norte 10 Este 0 -- -- 84
2020-03-17 19:00:00 14.2 6 Este 12 Este 0 -- -- 84
2020-03-17 18:00:00 15 8 Este 21 Este 0 -- -- 80
2020-03-17 17:00:00 15.8 13 Este 24 Este 0 -- -- 75
2020-03-17 16:00:00 15.8 14 Este 29 Este 0 -- -- 73
2020-03-17 15:00:00 17.3 15 Este 31 Este 0 -- -- 63
2020-03-17 14:00:00 16.9 17 Este 32 Nordeste 0 -- -- 66
2020-03-17 13:00:00 16.5 18 Nordeste 37 Este 0 -- -- 68
2020-03-17 12:00:00 15.9 12 Nordeste 32 Este 0 -- -- 73
2020-03-17 11:00:00 15.6 14 Nordeste 38 Nordeste 0 -- -- 72
2020-03-17 10:00:00 15.1 17 Nordeste 40 Nordeste 0 -- -- 74
2020-03-17 09:00:00 14.8 15 Nordeste 34 Nordeste 0 -- -- 74
2020-03-17 08:00:00 15 14 Nordeste 31 Nordeste 0 -- -- 74
2020-03-17 07:00:00 15.1 16 Nordeste 32 Nordeste 0 -- -- 75
2020-03-17 06:00:00 14.7 17 Nordeste 36 Nordeste 0 -- -- 75
2020-03-17 05:00:00 14.5 17 Nordeste 41 Nordeste 0 -- -- 76
2020-03-17 04:00:00 14.3 15 Nordeste 28 Norte 0 -- -- 76
2020-03-17 03:00:00 13.8 13 Nordeste 48 Este 0.2 -- -- 76
2020-03-17 02:00:00 14.4 17 Nordeste 39 Este 0 -- -- 71
2020-03-17 01:00:00 14.3 17 Nordeste 44 Nordeste 0 -- -- 70
2020-03-17 00:00:00 13.9 18 Nordeste 40 Este 0 -- -- 75
2020-03-16 23:00:00 14.1 16 Nordeste 41 Nordeste 0 -- -- 79
2020-03-16 22:00:00 13.8 16 Nordeste 38 Nordeste 0 -- -- 83
2020-03-16 21:00:00 13.6 16 Nordeste 37 Nordeste 0 -- -- 82
2020-03-16 20:00:00 13.1 16 Nordeste 39 Nordeste 0 -- -- 87
2020-03-16 19:00:00 12.8 18 Nordeste 51 Nordeste 1 -- -- 93
2020-03-16 18:00:00 12.9 19 Nordeste 36 Nordeste 1 -- -- 93
2020-03-16 17:00:00 13.1 19 Nordeste 36 Este 0 -- -- 91
2020-03-16 16:00:00 12.7 19 Nordeste 36 Este 0.2 -- -- 95
2020-03-16 15:00:00 12.5 23 Este 44 Este 1.4 -- -- 96
2020-03-16 14:00:00 12.7 21 Este 46 Este 2.6 -- -- 95
2020-03-16 13:00:00 13 23 Este 44 Este 3 -- -- 94
2020-03-16 12:00:00 13.3 23 Este 41 Nordeste 0.4 -- -- 91
2020-03-16 11:00:00 14.1 18 Nordeste 42 Nordeste 0 -- -- 85
2020-03-16 10:00:00 14.1 17 Este 32 Este 0 -- -- 80
2020-03-16 09:00:00 13.8 15 Nordeste 32 Nordeste 0 -- -- 79
2020-03-16 08:00:00 13.2 17 Nordeste 30 Nordeste 0 -- -- 80
2020-03-16 07:00:00 12.8 13 Nordeste 26 Nordeste 0 -- -- 81
2020-03-16 06:00:00 12.7 8 Nordeste 19 Nordeste 0 -- -- 79
2020-03-16 05:00:00 12.7 8 Nordeste 17 Nordeste 0 -- -- 83
2020-03-16 04:00:00 13.2 8 Este 16 Este 0 -- -- 83
2020-03-16 03:00:00 13.3 7 Este 14 Este 0 -- -- 84
2020-03-16 02:00:00 13.5 6 Este 13 Sudeste 0 -- -- 86
2020-03-16 01:00:00 13.5 6 Sudeste 12 Sudeste 0 -- -- 86
2020-03-16 00:00:00 13.4 5 Sudeste 13 Sudeste 0 -- -- 86
2020-03-15 23:00:00 13.5 7 Sudeste 13 Este 0 -- -- 88
2020-03-15 22:00:00 13.4 5 Sudeste 10 Este 0 -- -- 90
2020-03-15 21:00:00 13.1 0 Calma 5 Sudeste 0 -- -- 90
2020-03-15 20:00:00 12.9 2 Sudeste 8 Sudeste 0 -- -- 87
2020-03-15 19:00:00 13.8 4 Sur 14 Sur 0 -- -- 84
2020-03-15 18:00:00 14.7 9 Sur 21 Sur 0 -- -- 80
2020-03-15 17:00:00 15.7 10 Sudoeste 23 Sur 0 -- -- 77
2020-03-15 16:00:00 16.9 13 Sudoeste 24 Sudoeste 0 -- -- 74
2020-03-15 15:00:00 16.9 13 Sudoeste 22 Sudoeste 0 -- -- 75
2020-03-15 14:00:00 16.1 9 Sudoeste 19 Sudoeste 0 -- -- 76
2020-03-15 13:00:00 17.6 9 Sur 20 Sur 0 -- -- 69
2020-03-15 12:00:00 17.7 8 Sur 17 Sur 0 -- -- 68
2020-03-15 11:00:00 16.3 7 Sur 15 Sur 0 -- -- 70
2020-03-15 10:00:00 15.3 5 Sudoeste 12 Sudoeste 0 -- -- 75
2020-03-15 09:00:00 16.3 3 Sudoeste 6 Oeste 0 -- -- 75
2020-03-15 08:00:00 11.4 0 Calma 3 Norte 0 -- -- 92
2020-03-15 07:00:00 9.4 0 Calma 6 Norte 0 -- -- 94
2020-03-15 06:00:00 9.4 0 Calma 5 Noroeste 0 -- -- 94
2020-03-15 05:00:00 11 2 Noroeste 6 Norte 0 -- -- 93
2020-03-15 04:00:00 11.2 2 Noroeste 6 Noroeste 0 -- -- 94
2020-03-15 03:00:00 10.6 5 Noroeste 7 Noroeste 0 -- -- 93
2020-03-15 02:00:00 11.1 5 Norte 6 Noroeste 0 -- -- 93
2020-03-15 01:00:00 11.4 3 Norte 6 Noroeste 0 -- -- 93
2020-03-15 00:00:00 10.3 3 Norte 5 Norte 0 -- -- 92
2020-03-14 23:00:00 11.1 3 Noroeste 5 Noroeste 0 -- -- 90
2020-03-14 22:00:00 11.4 3 Norte 7 Norte 0 -- -- 88
2020-03-14 21:00:00 11.8 2 Noroeste 5 Noroeste 0 -- -- 88
2020-03-14 20:00:00 13.2 0 Calma 5 Nordeste 0 -- -- 86
2020-03-14 19:00:00 13.5 3 Nordeste 10 Este 0 -- -- 86
2020-03-14 18:00:00 13.8 7 Este 13 Este 0 -- -- 85
2020-03-14 17:00:00 14.8 4 Nordeste 15 Nordeste 0 -- -- 83
2020-03-14 16:00:00 14.2 6 Este 17 Nordeste 0 -- -- 86
2020-03-14 15:00:00 14.4 10 Este 23 Nordeste 0 -- -- 84
2020-03-14 14:00:00 14.5 10 Este 23 Este 0 -- -- 82
2020-03-14 13:00:00 14.9 8 Sudeste 21 Este 0 -- -- 85
2020-03-14 12:00:00 15.4 11 Este 19 Sudeste 0 -- -- 80
2020-03-14 11:00:00 16.4 9 Este 17 Sudeste 0 -- -- 75
2020-03-14 10:00:00 14.7 6 Este 12 Nordeste 0 -- -- 84
2020-03-14 09:00:00 14.1 5 Nordeste 11 Este 0 -- -- 88
2020-03-14 08:00:00 13.4 4 Este 8 Este 0 -- -- 86
2020-03-14 07:00:00 13.3 3 Noroeste 8 Noroeste 0 -- -- 88
2020-03-14 06:00:00 12.9 0 Calma 4 Este 0 -- -- 91
2020-03-14 05:00:00 12.8 2 Noroeste 3 Noroeste 0 -- -- 92
2020-03-14 04:00:00 12.4 0 Calma 3 Norte 0 -- -- 92
2020-03-14 03:00:00 11.7 0 Calma 4 Noroeste 0 -- -- 93
2020-03-14 02:00:00 11.6 2 Norte 6 Norte 0 -- -- 92
2020-03-14 01:00:00 11.8 2 Noroeste 5 Noroeste 0 -- -- 92
2020-03-14 00:00:00 11.9 2 Oeste 6 Noroeste 0 -- -- 90
2020-03-13 23:00:00 13.4 4 Norte 12 Nordeste 0 -- -- 89
2020-03-13 22:00:00 13.8 6 Nordeste 11 Nordeste 0 -- -- 88
2020-03-13 21:00:00 13.8 4 Este 9 Nordeste 0 -- -- 89
2020-03-13 20:00:00 14 3 Sudeste 10 Sur 0 -- -- 88
2020-03-13 19:00:00 14.1 4 Sur 15 Sudoeste 0 -- -- 86
2020-03-13 18:00:00 14.7 6 Sur 14 Sur 0 -- -- 83
2020-03-13 17:00:00 15.6 6 Sur 17 Sudoeste 0 -- -- 80
2020-03-13 16:00:00 16.8 7 Sur 15 Sudoeste 0 -- -- 77
2020-03-13 15:00:00 17.9 8 Sur 19 Sudoeste 0 -- -- 72
2020-03-13 14:00:00 17 12 Sudoeste 24 Sudoeste 0 -- -- 73
2020-03-13 13:00:00 18 16 Sudoeste 25 Sudoeste 0 -- -- 68
2020-03-13 12:00:00 17.6 9 Sudoeste 18 Sur 0 -- -- 71
2020-03-13 11:00:00 18.1 5 Sudoeste 11 Sudoeste 0 -- -- 69
2020-03-13 10:00:00 17.2 3 Sur 7 Sudoeste 0 -- -- 80
2020-03-13 09:00:00 13.5 2 Este 4 Sudeste 0 -- -- 93
2020-03-13 08:00:00 11.7 6 Este 19 Este 0 -- -- 97
2020-03-13 07:00:00 11 4 Oeste 9 Oeste 0 -- -- 96
2020-03-13 06:00:00 11.2 2 Noroeste 6 Oeste 0 -- -- 96
2020-03-13 05:00:00 10.6 0 Calma 6 Noroeste 0 -- -- 96
2020-03-13 04:00:00 10.7 0 Calma 4 Oeste 0 -- -- 96
2020-03-13 03:00:00 11.1 0 Calma 5 Este 0 -- -- 95
2020-03-13 02:00:00 11.5 4 Nordeste 8 Este 0 -- -- 95
2020-03-13 01:00:00 11.2 0 Calma 9 Este 0 -- -- 96
2020-03-13 00:00:00 11.3 0 Calma 4 Nordeste 0 -- -- 97
2020-03-12 23:00:00 11.6 0 Calma 9 Nordeste 0 -- -- 96
2020-03-12 22:00:00 12.1 5 Nordeste 13 Este 0 -- -- 96
2020-03-12 21:00:00 12.4 8 Este 15 Nordeste 0 -- -- 96
2020-03-12 20:00:00 12.7 6 Este 11 Este 0 -- -- 95
2020-03-12 19:00:00 13 3 Este 5 Este 0 -- -- 93
2020-03-12 18:00:00 14 4 Sudoeste 12 Sudoeste 0 -- -- 87
2020-03-12 17:00:00 16.3 6 Sur 18 Sudoeste 0 -- -- 81
2020-03-12 16:00:00 16.4 8 Sudoeste 18 Sudoeste 0 -- -- 81
2020-03-12 15:00:00 17.4 6 Sur 14 Sur 0 -- -- 76
2020-03-12 14:00:00 19 4 Sur 10 Sur 0 -- -- 68
2020-03-12 13:00:00 18.6 5 Sur 15 Sur 0 -- -- 71
2020-03-12 12:00:00 18.7 9 Sudoeste 16 Sudoeste 0 -- -- 68
2020-03-12 11:00:00 18.5 3 Sudeste 12 Este 0 -- -- 63
2020-03-12 10:00:00 17.6 5 Este 10 Este 0 -- -- 67
2020-03-12 09:00:00 16.2 3 Sudeste 6 Sudeste 0 -- -- 70
2020-03-12 08:00:00 13.8 0 Calma 7 Norte 0 -- -- 75
2020-03-12 07:00:00 11.5 0 Calma 6 Nordeste 0 -- -- 80
2020-03-12 06:00:00 11.6 3 Nordeste 8 Este 0 -- -- 75
2020-03-12 05:00:00 12.7 0 Calma 12 Oeste 0 -- -- 72
2020-03-12 04:00:00 12.9 7 Noroeste 12 Oeste 0 -- -- 72
2020-03-12 03:00:00 10.4 0 Calma 4 Noroeste 0 -- -- 92
2020-03-12 02:00:00 10.5 0 Calma 5 Norte 0 -- -- 91
2020-03-12 01:00:00 10.7 2 Nordeste 5 Norte 0 -- -- 91
2020-03-12 00:00:00 10.9 3 Norte 5 Norte 0 -- -- 90
2020-03-11 23:00:00 10.8 0 Calma 5 Oeste 0 -- -- 89
2020-03-11 22:00:00 11.8 0 Calma 4 Sudoeste 0 -- -- 89
2020-03-11 21:00:00 11.9 0 Calma 5 Noroeste 0 -- -- 87
2020-03-11 20:00:00 12.7 2 Oeste 6 Sudoeste 0 -- -- 88
2020-03-11 19:00:00 13.6 0 Calma 6 Sudoeste 0 -- -- 83
2020-03-11 18:00:00 16.5 3 Sudoeste 10 Sur 0 -- -- 75
2020-03-11 17:00:00 16.7 5 Sur 12 Sur 0 -- -- 76
2020-03-11 16:00:00 16.9 5 Sur 13 Sudoeste 0 -- -- 73
2020-03-11 15:00:00 17 5 Sur 13 Sur 0 -- -- 74
2020-03-11 14:00:00 17.5 5 Sur 12 Sudeste 0 -- -- 70
2020-03-11 13:00:00 16.5 6 Sudeste 11 Este 0 -- -- 73
2020-03-11 12:00:00 17.5 5 Sudeste 16 Este 0 -- -- 68
2020-03-11 11:00:00 16 10 Este 15 Sudeste 0 -- -- 70
2020-03-11 10:00:00 16.6 5 Sudeste 13 Este 0 -- -- 64
2020-03-11 09:00:00 15.2 6 Nordeste 10 Nordeste 0 -- -- 72
2020-03-11 08:00:00 13.4 3 Norte 10 Norte 0 -- -- 75
2020-03-11 07:00:00 10.7 5 Norte 9 Norte 0 -- -- 80
2020-03-11 06:00:00 9.7 4 Norte 6 Norte 0 -- -- 83
2020-03-11 05:00:00 9.1 2 Norte 7 Noroeste 0 -- -- 85
2020-03-11 04:00:00 9.9 3 Norte 7 Norte 0 -- -- 85
2020-03-11 03:00:00 9.8 2 Norte 5 Noroeste 0 -- -- 86
2020-03-11 02:00:00 10.4 0 Calma 5 Noroeste 0 -- -- 83
2020-03-11 01:00:00 11.2 2 Noroeste 8 Nordeste 0 -- -- 79
2020-03-11 00:00:00 11.9 0 Calma 10 Noroeste 0 -- -- 77
2020-03-10 23:00:00 11.4 3 Este 7 Noroeste 0 -- -- 77
2020-03-10 22:00:00 12.4 2 Este 16 Oeste 0 -- -- 72
2020-03-10 21:00:00 12.8 5 Sudoeste 13 Oeste 0 -- -- 72
2020-03-10 20:00:00 12.9 2 Noroeste 11 Sudoeste 0 -- -- 74
2020-03-10 19:00:00 13.4 6 Sudoeste 22 Sudoeste 0 -- -- 76
2020-03-10 18:00:00 14.3 9 Sudoeste 27 Sudoeste 0 -- -- 72
2020-03-10 17:00:00 14.6 14 Sudoeste 31 Sudoeste 0 -- -- 67
2020-03-10 16:00:00 15.3 16 Sudoeste 28 Sudoeste 0 -- -- 64
2020-03-10 15:00:00 15 12 Sudoeste 23 Sudoeste 0 -- -- 61
2020-03-10 14:00:00 16 14 Sudoeste 27 Sudoeste 0 -- -- 60
2020-03-10 13:00:00 16.4 13 Sudoeste 27 Sudoeste 0 -- -- 52
2020-03-10 12:00:00 17.8 12 Sudoeste 25 Oeste 0 -- -- 48
2020-03-10 11:00:00 18 11 Sudoeste 23 Sudoeste 0 -- -- 44
2020-03-10 10:00:00 16.4 4 Sur 16 Sur 0 -- -- 49
2020-03-10 09:00:00 13.7 5 Noroeste 13 Noroeste 0 -- -- 54
2020-03-10 08:00:00 10.9 6 Oeste 21 Oeste 0 -- -- 59
2020-03-10 07:00:00 10.6 8 Norte 27 Noroeste 0 -- -- 60
2020-03-10 06:00:00 10 6 Noroeste 20 Noroeste 0 -- -- 64
2020-03-10 05:00:00 10.5 8 Noroeste 19 Norte 0 -- -- 66
2020-03-10 04:00:00 11.6 8 Noroeste 16 Oeste 0 -- -- 72
2020-03-10 03:00:00 11.8 7 Oeste 15 Oeste 0 -- -- 74
2020-03-10 02:00:00 12.1 7 Noroeste 16 Noroeste 0 -- -- 71
2020-03-10 01:00:00 11.5 5 Noroeste 13 Oeste 0 -- -- 70
2020-03-10 00:00:00 11.7 7 Noroeste 13 Noroeste 0 -- -- 73
2020-03-09 23:00:00 11.9 6 Noroeste 10 Oeste 0 -- -- 74
2020-03-09 22:00:00 11.6 3 Oeste 7 Oeste 0 -- -- 73
2020-03-09 21:00:00 12.2 2 Noroeste 5 Noroeste 0 -- -- 72
2020-03-09 20:00:00 11.9 4 Noroeste 8 Este 0 -- -- 75
2020-03-09 19:00:00 12 5 Este 14 Este 0 -- -- 74
2020-03-09 18:00:00 13.5 9 Este 23 Este 0 -- -- 71
2020-03-09 17:00:00 13.2 14 Este 33 Este 0 -- -- 74
2020-03-09 16:00:00 13.5 19 Sudeste 32 Sudeste 0 -- -- 77
2020-03-09 15:00:00 15.2 7 Sudeste 22 Sudoeste 0 -- -- 71
2020-03-09 14:00:00 16.3 13 Sur 22 Sudoeste 0 -- -- 67
2020-03-09 13:00:00 17.1 9 Sur 24 Sudeste 0 -- -- 66
2020-03-09 12:00:00 19.3 7 Sur 17 Sudoeste 0 -- -- 55
2020-03-09 11:00:00 18.9 5 Sur 12 Este 0 -- -- 59
2020-03-09 10:00:00 16 6 Sudeste 13 Este 0 -- -- 71
2020-03-09 09:00:00 14.2 3 Norte 8 Noroeste 0 -- -- 77
2020-03-09 08:00:00 11.6 3 Norte 6 Noroeste 0 -- -- 82
2020-03-09 07:00:00 10.5 3 Norte 8 Norte 0 -- -- 84
2020-03-09 06:00:00 10.2 4 Norte 8 Noroeste 0 -- -- 85
2020-03-09 05:00:00 10 3 Norte 5 Norte 0 -- -- 89
2020-03-09 04:00:00 10.1 3 Norte 8 Norte 0 -- -- 86
2020-03-09 03:00:00 10.9 5 Norte 10 Norte 0 -- -- 84
2020-03-09 02:00:00 9.9 3 Norte 5 Norte 0 -- -- 81
2020-03-09 01:00:00 10.3 2 Norte 6 Norte 0 -- -- 79
2020-03-09 00:00:00 10.8 3 Norte 6 Noroeste 0 -- -- 80
2020-03-08 23:00:00 10.9 2 Noroeste 6 Noroeste 0 -- -- 78
2020-03-08 22:00:00 11.6 2 Norte 5 Noroeste 0 -- -- 76
2020-03-08 21:00:00 12.6 3 Noroeste 5 Noroeste 0 -- -- 75
2020-03-08 20:00:00 12.9 3 Noroeste 8 Nordeste 0 -- -- 80
2020-03-08 19:00:00 13.3 3 Oeste 12 Sudoeste 0 -- -- 81
2020-03-08 18:00:00 13.9 6 Sudoeste 16 Sudoeste 0 -- -- 73
2020-03-08 17:00:00 14.6 9 Sudoeste 18 Sudoeste 0 -- -- 67
2020-03-08 16:00:00 15 7 Sudoeste 18 Sudoeste 0 -- -- 65
2020-03-08 15:00:00 -- -- -- -- -- -- -- -- --
2020-03-08 14:00:00 16.7 10 Sur 18 Sur 0 -- -- 56
2020-03-08 13:00:00 17.6 6 Sur 15 Sudeste 0 -- -- 55
2020-03-08 12:00:00 17.6 4 Sudeste 13 Sur 0 -- -- 51
2020-03-08 11:00:00 18.4 5 Sur 15 Sudoeste 0 -- -- 49
2020-03-08 10:00:00 16.5 7 Oeste 18 Sudoeste 0 -- -- 58
2020-03-08 09:00:00 16.9 4 Sudoeste 8 Sudoeste 0 -- -- 58
2020-03-08 08:00:00 11.3 4 Noroeste 8 Noroeste 0 -- -- 77
2020-03-08 07:00:00 9.1 5 Noroeste 7 Noroeste 0 -- -- 80
2020-03-08 06:00:00 9.8 5 Norte 6 Norte 0 -- -- 79
2020-03-08 05:00:00 10.3 4 Noroeste 6 Noroeste 0 -- -- 78
2020-03-08 04:00:00 10.6 4 Noroeste 8 Noroeste 0 -- -- 77
2020-03-08 03:00:00 10.2 3 Norte 8 Noroeste 0 -- -- 78
2020-03-08 02:00:00 9.8 4 Noroeste 7 Norte 0 -- -- 80
2020-03-08 01:00:00 9.8 4 Noroeste 7 Noroeste 0 -- -- 81
2020-03-08 00:00:00 10 3 Noroeste 6 Noroeste 0 -- -- 82
2020-03-07 23:00:00 10.2 2 Norte 8 Noroeste 0 -- -- 80
2020-03-07 22:00:00 10.8 3 Norte 5 Noroeste 0 -- -- 78
2020-03-07 21:00:00 10.8 4 Nordeste 8 Nordeste 0 -- -- 77
2020-03-07 20:00:00 11.3 5 Nordeste 13 Este 0 -- -- 76
2020-03-07 19:00:00 12.3 6 Este 18 Este 0 -- -- 73
2020-03-07 18:00:00 13.6 12 Este 22 Este 0 -- -- 67
2020-03-07 17:00:00 14.1 13 Este 23 Este 0 -- -- 64
2020-03-07 16:00:00 14.4 11 Este 23 Este 0 -- -- 60
2020-03-07 15:00:00 14.9 10 Sudeste 19 Este 0 -- -- 50
2020-03-07 14:00:00 14.3 8 Este 19 Sudeste 0 -- -- 56
2020-03-07 13:00:00 14.9 6 Sudeste 22 Sudeste 0 -- -- 44
2020-03-07 12:00:00 15.6 6 Este 19 Sudeste 0 -- -- 38
2020-03-07 11:00:00 16.5 4 Sudoeste 17 Este 0 -- -- 36
2020-03-07 10:00:00 14 7 Este 15 Este 0 -- -- 42
2020-03-07 09:00:00 13.5 3 Sudeste 16 Noroeste 0 -- -- 43
2020-03-07 08:00:00 10.2 7 Norte 18 Norte 0 -- -- 43
2020-03-07 07:00:00 7 9 Norte 19 Norte 0 -- -- 52
2020-03-07 06:00:00 6.7 4 Norte 11 Noroeste 0 -- -- 51
2020-03-07 05:00:00 5.5 4 Norte 6 Norte 0 -- -- 59
2020-03-07 04:00:00 6.9 3 Sudoeste 14 Nordeste 0 -- -- 52
2020-03-07 03:00:00 6.9 4 Oeste 23 Noroeste 0 -- -- 53
2020-03-07 02:00:00 9 13 Noroeste 28 Noroeste 0 -- -- 46
2020-03-07 01:00:00 8.9 19 Oeste 34 Noroeste 0 -- -- 45
2020-03-07 00:00:00 9.6 19 Noroeste 35 Oeste 0 -- -- 42
2020-03-06 23:00:00 10 12 Oeste 32 Oeste 0 -- -- 41
2020-03-06 22:00:00 10.3 18 Noroeste 33 Noroeste 0 -- -- 44
2020-03-06 21:00:00 9.9 6 Oeste 19 Oeste 0 -- -- 60
2020-03-06 20:00:00 9.9 4 Noroeste 7 Noroeste 0 -- -- 70
2020-03-06 19:00:00 11 2 Norte 17 Este 0 -- -- 64
2020-03-06 18:00:00 12.6 12 Este 32 Este 0 -- -- 61
2020-03-06 17:00:00 12.7 17 Este 33 Este 0 -- -- 61
2020-03-06 16:00:00 15.8 8 Noroeste 38 Noroeste 0 -- -- 39
2020-03-06 15:00:00 15.7 20 Noroeste 44 Noroeste 0 -- -- 36
2020-03-06 14:00:00 16.5 15 Oeste 32 Noroeste 0 -- -- 43
2020-03-06 13:00:00 15.1 12 Noroeste 40 Oeste 0 -- -- 44
2020-03-06 12:00:00 16 18 Oeste 50 Oeste 0 -- -- 44
2020-03-06 11:00:00 14.6 17 Oeste 45 Oeste 0 -- -- 45
2020-03-06 10:00:00 12.8 6 Noroeste 23 Norte 0 -- -- 50
2020-03-06 09:00:00 12.4 9 Oeste 24 Oeste 0 -- -- 49
2020-03-06 08:00:00 9.8 10 Norte 35 Oeste 0 -- -- 58
2020-03-06 07:00:00 8.7 19 Noroeste 36 Noroeste 0 -- -- 60
2020-03-06 06:00:00 9.7 15 Noroeste 32 Norte 0 -- -- 55
2020-03-06 05:00:00 10.3 12 Noroeste 30 Noroeste 0 -- -- 56
2020-03-06 04:00:00 9.5 5 Noroeste 13 Noroeste 0 -- -- 62
2020-03-06 03:00:00 9.6 6 Norte 11 Norte 0 -- -- 66
2020-03-06 02:00:00 9.8 4 Noroeste 13 Norte 0 -- -- 69
2020-03-06 01:00:00 9.7 5 Noroeste 8 Nordeste 0 -- -- 70
2020-03-06 00:00:00 10.7 3 Norte 8 Noroeste 0 -- -- 78
2020-03-05 23:00:00 11.1 2 Sur 10 Noroeste 0 -- -- 76
2020-03-05 22:00:00 12.6 7 Norte 22 Este 0 -- -- 74
2020-03-05 21:00:00 13.8 9 Este 27 Noroeste 0 -- -- 69
2020-03-05 20:00:00 16.6 12 Oeste 31 Oeste 0 -- -- 44
2020-03-05 19:00:00 18 23 Oeste 49 Oeste 0 -- -- 40
2020-03-05 18:00:00 19.2 22 Oeste 52 Oeste 0 -- -- 45
2020-03-05 17:00:00 19.8 21 Oeste 53 Oeste 0 -- -- 52
2020-03-05 16:00:00 22.4 21 Oeste 48 Oeste 0 -- -- 46
2020-03-05 15:00:00 22 25 Oeste 45 Oeste 0 -- -- 46
2020-03-05 14:00:00 20.3 23 Oeste 48 Oeste 0 -- -- 50
2020-03-05 13:00:00 20.6 24 Oeste 49 Oeste 0 -- -- 48
2020-03-05 12:00:00 20 13 Sudoeste 37 Oeste 0 -- -- 62
2020-03-05 11:00:00 19.1 13 Sudoeste 23 Oeste 0 -- -- 58
2020-03-05 10:00:00 18.3 12 Sudoeste 27 Oeste 0 -- -- 58
2020-03-05 09:00:00 16.7 7 Sudoeste 15 Oeste 0 -- -- 66
2020-03-05 08:00:00 13.1 8 Oeste 18 Sudoeste 0 -- -- 76
2020-03-05 07:00:00 11.3 5 Oeste 11 Oeste 0 -- -- 87
2020-03-05 06:00:00 10.9 3 Noroeste 5 Noroeste 0 -- -- 88
2020-03-05 05:00:00 11.4 4 Noroeste 7 Noroeste 0 -- -- 87
2020-03-05 04:00:00 10.8 4 Noroeste 8 Norte 0 -- -- 87
2020-03-05 03:00:00 10.8 4 Noroeste 6 Norte 0 -- -- 89
2020-03-05 02:00:00 10.4 3 Norte 5 Noroeste 0 -- -- 88
2020-03-05 01:00:00 10.2 2 Norte 5 Noroeste 0 -- -- 87
2020-03-05 00:00:00 10.8 4 Norte 5 Noroeste 0 -- -- 86
2020-03-04 23:00:00 10.8 3 Noroeste 6 Norte 0 -- -- 86
2020-03-04 22:00:00 10.8 3 Norte 6 Noroeste 0 -- -- 86
2020-03-04 21:00:00 11 3 Norte 6 Noroeste 0 -- -- 85
2020-03-04 20:00:00 11.6 3 Norte 9 Nordeste 0 -- -- 84
2020-03-04 19:00:00 12.5 4 Nordeste 12 Nordeste 0 -- -- 81
2020-03-04 18:00:00 14.1 6 Este 13 Este 0 -- -- 76
2020-03-04 17:00:00 14.3 6 Este 12 Este 0 -- -- 75
2020-03-04 16:00:00 13.6 6 Este 14 Este 0 -- -- 76
2020-03-04 15:00:00 13.1 9 Este 19 Este 0 -- -- 78
2020-03-04 14:00:00 13 10 Este 25 Este 0 -- -- 80
2020-03-04 13:00:00 14.1 13 Este 28 Este 0 -- -- 78
2020-03-04 12:00:00 15.1 16 Este 37 Este 0 -- -- 73
2020-03-04 11:00:00 16.4 10 Sudeste 23 Sudeste 0 -- -- 71
2020-03-04 10:00:00 13.8 4 Este 8 Este 0 -- -- 61
2020-03-04 09:00:00 12.1 3 Nordeste 8 Noroeste 0 -- -- 63
2020-03-04 08:00:00 9.4 3 Este 12 Noroeste 0 -- -- 66
2020-03-04 07:00:00 8.5 5 Noroeste 10 Noroeste 0 -- -- 67
2020-03-04 06:00:00 9.4 4 Norte 12 Oeste 0 -- -- 63
2020-03-04 05:00:00 8.3 4 Norte 9 Nordeste 0 -- -- 67
2020-03-04 04:00:00 7.8 3 Noroeste 6 Norte 0 -- -- 68
2020-03-04 03:00:00 8.6 6 Noroeste 14 Noroeste 0 -- -- 67
2020-03-04 02:00:00 9.3 7 Noroeste 10 Noroeste 0 -- -- 68
2020-03-04 01:00:00 9.1 3 Noroeste 11 Norte 0 -- -- 70
2020-03-04 00:00:00 11.8 6 Norte 20 Noroeste 0 -- -- 59
2020-03-03 23:00:00 12.7 7 Noroeste 15 Noroeste 0 -- -- 57
2020-03-03 22:00:00 13 9 Noroeste 29 Oeste 0 -- -- 59
2020-03-03 21:00:00 13.5 18 Oeste 32 Oeste 0 -- -- 61
2020-03-03 20:00:00 12.7 9 Noroeste 35 Oeste 0 -- -- 66
2020-03-03 19:00:00 13.6 14 Noroeste 36 Oeste 0 -- -- 62
2020-03-03 18:00:00 14.9 16 Oeste 39 Oeste 0 -- -- 58
2020-03-03 17:00:00 14.7 13 Oeste 33 Noroeste 0 -- -- 58
2020-03-03 16:00:00 14.7 19 Oeste 37 Noroeste 0 -- -- 55
2020-03-03 15:00:00 13.4 15 Oeste 46 Oeste 0 -- -- 57
2020-03-03 14:00:00 13.6 24 Oeste 40 Oeste 0 -- -- 53
2020-03-03 13:00:00 13.9 23 Oeste 48 Oeste 0 -- -- 49
2020-03-03 12:00:00 13.6 16 Sudoeste 40 Oeste 0 -- -- 49
2020-03-03 11:00:00 11.8 20 Oeste 40 Sudoeste 0 -- -- 52
2020-03-03 10:00:00 9.7 17 Oeste 45 Noroeste 0 -- -- 56
2020-03-03 09:00:00 9.3 24 Oeste 46 Noroeste 0 -- -- 55
2020-03-03 08:00:00 8.3 19 Oeste 39 Oeste 0 -- -- 58
2020-03-03 07:00:00 7.6 9 Noroeste 20 Oeste 0 -- -- 61
2020-03-03 06:00:00 7.1 5 Oeste 14 Oeste 0 -- -- 62
2020-03-03 05:00:00 6.9 9 Oeste 17 Oeste 0 -- -- 63
2020-03-03 04:00:00 7.3 9 Noroeste 28 Oeste 0 -- -- 61
2020-03-03 03:00:00 7.9 11 Noroeste 26 Noroeste 0 -- -- 58
2020-03-03 02:00:00 8.1 13 Noroeste 29 Noroeste 0 -- -- 58
2020-03-03 01:00:00 8.4 11 Noroeste 24 Noroeste 0 -- -- 58
2020-03-03 00:00:00 8.8 11 Noroeste 22 Noroeste 0 -- -- 56
2020-03-02 23:00:00 9.6 9 Oeste 31 Oeste 0 -- -- 53
2020-03-02 22:00:00 11.2 20 Oeste 42 Noroeste 0 -- -- 47
2020-03-02 21:00:00 11.9 15 Noroeste 33 Oeste 0 -- -- 46
2020-03-02 20:00:00 12.9 14 Noroeste 46 Noroeste 0 -- -- 44
2020-03-02 19:00:00 14.5 23 Oeste 39 Oeste 0 -- -- 40
2020-03-02 18:00:00 15.7 17 Oeste 42 Oeste 0 -- -- 38
2020-03-02 17:00:00 16.9 25 Oeste 45 Oeste 0 -- -- 37
2020-03-02 16:00:00 18.3 12 Noroeste 42 Noroeste 0 -- -- 40
2020-03-02 15:00:00 18.8 21 Noroeste 50 Noroeste 0 -- -- 35
2020-03-02 14:00:00 16.9 22 Oeste 63 Oeste 0 -- -- 49
2020-03-02 13:00:00 17.1 32 Oeste 67 Noroeste 0 -- -- 50
2020-03-02 12:00:00 17.3 34 Oeste 68 Oeste 0 -- -- 50
2020-03-02 11:00:00 16.7 18 Sudoeste 46 Sudoeste 0 -- -- 61
2020-03-02 10:00:00 14.4 21 Oeste 49 Oeste 1 -- -- 71
2020-03-02 09:00:00 15.8 23 Sudoeste 40 Oeste 0.2 -- -- 76
2020-03-02 08:00:00 15.9 19 Sudoeste 36 Sudoeste 0 -- -- 73
2020-03-02 07:00:00 15.7 21 Sudoeste 44 Sudoeste 0 -- -- 73
2020-03-02 06:00:00 15 16 Sudoeste 32 Oeste 0 -- -- 76
2020-03-02 05:00:00 13.6 9 Oeste 34 Oeste 0.6 -- -- 85
2020-03-02 04:00:00 14.4 17 Oeste 33 Sudoeste 0.2 -- -- 78
2020-03-02 03:00:00 14.3 10 Oeste 20 Sudoeste 0 -- -- 78
2020-03-02 02:00:00 13.8 5 Oeste 17 Sudoeste 0 -- -- 72
2020-03-02 01:00:00 13.5 0 Calma 17 Sudoeste 0 -- -- 72
2020-03-02 00:00:00 17.8 10 Oeste 20 Oeste 0 -- -- 44
2020-03-01 23:00:00 13.4 7 Sudoeste 16 Oeste 0 -- -- 75
2020-03-01 22:00:00 13.7 6 Sudoeste 16 Sudoeste 0 -- -- 68
2020-03-01 21:00:00 14.2 3 Sur 17 Oeste 0 -- -- 69
2020-03-01 20:00:00 14.9 6 Oeste 18 Sudoeste 0 -- -- 62
2020-03-01 19:00:00 16 14 Oeste 28 Sudoeste 0 -- -- 64
2020-03-01 18:00:00 17.9 10 Sudoeste 39 Sudoeste 0 -- -- 54
2020-03-01 17:00:00 18.6 19 Sudoeste 40 Sudoeste 0 -- -- 55
2020-03-01 16:00:00 18.8 22 Sudoeste 39 Sudoeste 0 -- -- 54
2020-03-01 15:00:00 20.3 25 Oeste 50 Sudoeste 0 -- -- 39
2020-03-01 14:00:00 19.9 28 Oeste 51 Oeste 0 -- -- 41
2020-03-01 13:00:00 20 20 Oeste 46 Oeste 0 -- -- 43
2020-03-01 12:00:00 19 21 Oeste 52 Oeste 0 -- -- 42
2020-03-01 11:00:00 18.5 17 Oeste 42 Sudoeste 0 -- -- 45
2020-03-01 10:00:00 17.1 17 Oeste 32 Oeste 0 -- -- 48
2020-03-01 09:00:00 15.8 0 Calma 7 Norte 0 -- -- 77
2020-03-01 08:00:00 12 3 Norte 7 Noroeste 0 -- -- 87
2020-03-01 07:00:00 12.1 0 Calma 4 Oeste 0 -- -- 87
2020-03-01 06:00:00 12 0 Calma 4 Noroeste 0 -- -- 86
2020-03-01 05:00:00 11.8 0 Calma 5 Oeste 0 -- -- 86
2020-03-01 04:00:00 11.6 2 Sudoeste 5 Sudeste 0 -- -- 86
2020-03-01 03:00:00 12.2 0 Calma 8 Este 0 -- -- 84
2020-03-01 02:00:00 13.3 3 Nordeste 11 Nordeste 0 -- -- 83
2020-03-01 01:00:00 13.9 6 Nordeste 25 Nordeste 0 -- -- 83
2020-03-01 00:00:00 14.8 8 Nordeste 19 Nordeste 0 -- -- 74
2020-02-29 23:00:00 15.9 3 Norte 7 Norte 0 -- -- 58
2020-02-29 22:00:00 16.6 2 Oeste 17 Noroeste 0 -- -- 53
2020-02-29 21:00:00 17.7 9 Noroeste 25 Noroeste 0 -- -- 48
2020-02-29 20:00:00 18.1 10 Oeste 22 Noroeste 0 -- -- 48
2020-02-29 19:00:00 17.2 10 Oeste 22 Oeste 0 -- -- 58
2020-02-29 18:00:00 16 6 Sudoeste 22 Sudoeste 0 -- -- 75
2020-02-29 17:00:00 16.3 13 Sudoeste 26 Sudoeste 0 -- -- 76
2020-02-29 16:00:00 16.9 9 Sudoeste 23 Sudoeste 0 -- -- 74
2020-02-29 15:00:00 16.4 15 Sudoeste 31 Sudoeste 0 -- -- 77
2020-02-29 14:00:00 16.6 19 Sudoeste 31 Sudoeste 0 -- -- 78
2020-02-29 13:00:00 17.2 15 Sudoeste 32 Sudoeste 0 -- -- 74
2020-02-29 12:00:00 18.2 12 Sudoeste 23 Sur 0 -- -- 72
2020-02-29 11:00:00 17.2 9 Sudoeste 27 Oeste 0 -- -- 72
2020-02-29 10:00:00 16.3 11 Sudoeste 21 Oeste 0 -- -- 75
2020-02-29 09:00:00 13.7 9 Sudoeste 17 Sudoeste 0 -- -- 83
2020-02-29 08:00:00 13 8 Oeste 17 Sudoeste 0 -- -- 83
2020-02-29 07:00:00 12.9 7 Oeste 15 Oeste 0 -- -- 83
2020-02-29 06:00:00 12.8 9 Oeste 18 Oeste 0 -- -- 83
2020-02-29 05:00:00 12.7 10 Oeste 15 Sudoeste 0 -- -- 84
2020-02-29 04:00:00 12.4 4 Sudoeste 11 Sudoeste 0 -- -- 84
2020-02-29 03:00:00 12.6 5 Oeste 12 Sudoeste 0 -- -- 83
2020-02-29 02:00:00 12.9 8 Oeste 14 Oeste 0 -- -- 82
2020-02-29 01:00:00 12.6 5 Noroeste 16 Oeste 0 -- -- 81
2020-02-29 00:00:00 12.9 5 Oeste 11 Noroeste 0 -- -- 83
2020-02-28 23:00:00 -- -- -- -- -- -- -- -- --
2020-02-28 22:00:00 11.5 5 Noroeste 7 Oeste 0 -- -- 87
2020-02-28 21:00:00 12.2 4 Sudoeste 10 Sudoeste 0 -- -- 84
2020-02-28 20:00:00 13 6 Sudoeste 13 Oeste 0 -- -- 83
2020-02-28 19:00:00 13.1 7 Sudoeste 13 Sudoeste 0 -- -- 82
2020-02-28 18:00:00 13.3 9 Sudoeste 17 Sudoeste 0 -- -- 80
2020-02-28 17:00:00 13.8 9 Sudoeste 23 Sur 0 -- -- 79
2020-02-28 16:00:00 14.3 13 Sudoeste 24 Sudoeste 0 -- -- 79
2020-02-28 15:00:00 15.1 13 Sudoeste 26 Sur 0 -- -- 75
2020-02-28 14:00:00 16.7 13 Sudoeste 24 Sudoeste 0 -- -- 71
2020-02-28 13:00:00 14.1 12 Sudoeste 23 Sudoeste 0 -- -- 83
2020-02-28 12:00:00 15.5 12 Sudoeste 24 Sudoeste 0 -- -- 75
2020-02-28 11:00:00 17.7 10 Sudoeste 22 Sudoeste 0 -- -- 67
2020-02-28 10:00:00 17.9 12 Oeste 25 Sudoeste 0 -- -- 57
2020-02-28 09:00:00 17.8 4 Oeste 12 Oeste 0 -- -- 58
2020-02-28 08:00:00 13.2 4 Oeste 14 Oeste 0 -- -- 79
2020-02-28 07:00:00 12.1 5 Oeste 10 Sudoeste 0 -- -- 80
2020-02-28 06:00:00 12.5 6 Noroeste 12 Oeste 0 -- -- 84
2020-02-28 05:00:00 11.2 4 Oeste 7 Oeste 0 -- -- 86
2020-02-28 04:00:00 11.8 4 Oeste 9 Norte 0 -- -- 79
2020-02-28 03:00:00 13 5 Norte 11 Norte 0 -- -- 68
2020-02-28 02:00:00 13 2 Sudoeste 17 Norte 0 -- -- 62
2020-02-28 01:00:00 14.8 10 Norte 21 Oeste 0 -- -- 55
2020-02-28 00:00:00 14.3 6 Nordeste 17 Sudeste 0 -- -- 59